createdAt,value
2023-03-17T00:00:11.123Z,96103.97
2023-03-17T00:02:37.465Z,96089.63
2023-03-17T00:05:03.768Z,96094.38
2023-03-17T00:07:30.063Z,96096.28
2023-03-17T00:09:56.384Z,96098.19
2023-03-17T00:12:22.690Z,96102.09
2023-03-17T00:14:48.975Z,96094.78
2023-03-17T00:17:15.286Z,96095.06
2023-03-17T00:19:41.580Z,96098.50
2023-03-17T00:22:07.877Z,96098.59
2023-03-17T00:24:34.197Z,96111.53
2023-03-17T00:27:00.504Z,96105.78
2023-03-17T00:29:26.824Z,96107.78
2023-03-17T00:31:53.164Z,96115.13
2023-03-17T00:34:19.465Z,96109.56
2023-03-17T00:36:45.771Z,96107.56
2023-03-17T00:39:12.126Z,96105.16
2023-03-17T00:41:38.416Z,96111.03
2023-03-17T00:44:04.711Z,96117.38
2023-03-17T00:46:31.060Z,96113.25
2023-03-17T00:48:57.377Z,96112.41
2023-03-17T00:51:23.670Z,96120.97
2023-03-17T00:53:50.039Z,96115.47
2023-03-17T00:56:16.345Z,96113.81
2023-03-17T00:58:42.634Z,96119.72
2023-03-17T01:01:09.008Z,96110.38
2023-03-17T01:03:35.349Z,96109.84
2023-03-17T01:06:01.657Z,96103.53
2023-03-17T01:08:28.009Z,96099.75
2023-03-17T01:10:54.300Z,96099.19
2023-03-17T01:13:20.593Z,96096.28
2023-03-17T01:15:46.909Z,96097.75
2023-03-17T01:18:13.213Z,96081.66
2023-03-17T01:20:39.526Z,96085.44
2023-03-17T01:23:05.838Z,96078.53
2023-03-17T01:25:32.150Z,96067.97
2023-03-17T01:27:58.446Z,96066.66
2023-03-17T01:30:24.764Z,96065.69
2023-03-17T01:32:51.113Z,96054.63
2023-03-17T01:35:17.441Z,96064.84
2023-03-17T01:37:43.765Z,96057.56
2023-03-17T01:40:10.063Z,96060.06
2023-03-17T01:42:36.397Z,96070.97
2023-03-17T01:45:02.706Z,96066.19
2023-03-17T01:47:29.002Z,96064.22
2023-03-17T01:49:55.295Z,96065.69
2023-03-17T01:52:21.607Z,96065.06
2023-03-17T01:54:47.898Z,96055.06
2023-03-17T01:57:14.208Z,96054.06
2023-03-17T01:59:40.557Z,96052.69
2023-03-17T02:02:06.856Z,96046.03
2023-03-17T02:04:33.206Z,96039.31
2023-03-17T02:06:59.532Z,96036.50
2023-03-17T02:09:25.818Z,96039.19
2023-03-17T02:11:52.108Z,96035.19
2023-03-17T02:14:18.410Z,96036.09
2023-03-17T02:16:44.723Z,96038.03
2023-03-17T02:19:11.037Z,96036.31
2023-03-17T02:21:37.369Z,96030.81
2023-03-17T02:24:03.668Z,96032.47
2023-03-17T02:26:30.035Z,96034.72
2023-03-17T02:28:56.353Z,96033.81
2023-03-17T02:31:22.693Z,96023.94
2023-03-17T02:33:49.026Z,96029.25
2023-03-17T02:36:15.373Z,96025.28
2023-03-17T02:38:41.700Z,96021.72
2023-03-17T02:41:07.991Z,96022.66
2023-03-17T02:43:34.356Z,96020.88
2023-03-17T02:46:00.704Z,96011.94
2023-03-17T02:48:27.090Z,96009.09
2023-03-17T02:50:53.404Z,96016.44
2023-03-17T02:53:19.713Z,96019.84
2023-03-17T02:55:46.010Z,96010.50
2023-03-17T02:58:12.331Z,96008.53
2023-03-17T03:00:38.619Z,96010.31
2023-03-17T03:03:04.914Z,96008.44
2023-03-17T03:05:31.276Z,96010.69
2023-03-17T03:07:57.564Z,96011.44
2023-03-17T03:10:23.858Z,96015.41
2023-03-17T03:12:50.166Z,96016.94
2023-03-17T03:15:16.459Z,96014.50
2023-03-17T03:17:42.760Z,96014.72
2023-03-17T03:20:09.076Z,96020.69
2023-03-17T03:22:35.402Z,96018.53
2023-03-17T03:25:03.620Z,96025.03
2023-03-17T03:27:29.951Z,96036.47
2023-03-17T03:29:56.248Z,96024.94
2023-03-17T03:32:22.558Z,96030.47
2023-03-17T03:34:48.886Z,96023.56
2023-03-17T03:37:15.189Z,96026.34
2023-03-17T03:39:41.494Z,96023.00
2023-03-17T03:42:07.824Z,96019.06
2023-03-17T03:44:34.123Z,96019.13
2023-03-17T03:47:00.430Z,96018.78
2023-03-17T03:49:26.742Z,96019.84
2023-03-17T03:51:53.032Z,96022.19
2023-03-17T03:54:19.342Z,96029.34
2023-03-17T03:56:45.667Z,96027.06
2023-03-17T03:59:11.971Z,96029.28
2023-03-17T04:01:38.277Z,96036.38
2023-03-17T04:04:04.592Z,96036.81
2023-03-17T04:06:30.894Z,96044.31
2023-03-17T04:08:58.373Z,96034.16
2023-03-17T04:11:24.866Z,96031.41
2023-03-17T04:13:51.162Z,96027.50
2023-03-17T04:16:17.544Z,96034.88
2023-03-17T04:18:43.942Z,96031.75
2023-03-17T04:21:10.255Z,96026.34
2023-03-17T04:23:36.581Z,96030.25
2023-03-17T04:26:02.895Z,96028.63
2023-03-17T04:28:29.193Z,96028.75
2023-03-17T04:30:55.497Z,96032.78
2023-03-17T04:33:21.820Z,96027.34
2023-03-17T04:35:48.169Z,96030.06
2023-03-17T04:38:14.513Z,96030.44
2023-03-17T04:40:40.855Z,96024.78
2023-03-17T04:43:07.198Z,96033.91
2023-03-17T04:45:33.545Z,96032.19
2023-03-17T04:47:59.919Z,96026.44
2023-03-17T04:50:26.232Z,96021.66
2023-03-17T04:52:52.520Z,96023.41
2023-03-17T04:55:18.926Z,96020.66
2023-03-17T04:57:45.234Z,96039.97
2023-03-17T05:00:11.537Z,96031.25
2023-03-17T05:02:37.953Z,96023.50
2023-03-17T05:05:04.292Z,96029.09
2023-03-17T05:07:32.658Z,96023.59
2023-03-17T05:10:00.264Z,96021.03
2023-03-17T05:12:26.565Z,96032.41
2023-03-17T05:14:52.876Z,96030.09
2023-03-17T05:17:19.250Z,96031.28
2023-03-17T05:19:45.569Z,96025.16
2023-03-17T05:22:11.884Z,96022.44
2023-03-17T05:24:38.224Z,96025.66
2023-03-17T05:27:04.517Z,96033.13
2023-03-17T05:29:30.831Z,96038.84
2023-03-17T05:31:57.146Z,96042.03
2023-03-17T05:34:23.443Z,96033.72
2023-03-17T05:36:49.740Z,96032.94
2023-03-17T05:39:16.062Z,96037.69
2023-03-17T05:41:42.367Z,96033.22
2023-03-17T05:44:08.675Z,96038.41
2023-03-17T05:46:35.044Z,96037.34
2023-03-17T05:49:01.363Z,96039.97
2023-03-17T05:51:27.675Z,96044.09
2023-03-17T05:53:54.007Z,96038.56
2023-03-17T05:56:20.326Z,96040.06
2023-03-17T05:58:46.627Z,96044.94
2023-03-17T06:01:12.959Z,96039.34
2023-03-17T06:03:39.274Z,96035.25
2023-03-17T06:06:05.638Z,96045.00
2023-03-17T06:08:31.973Z,96045.03
2023-03-17T06:10:58.278Z,96047.78
2023-03-17T06:13:24.591Z,96052.47
2023-03-17T06:15:50.939Z,96052.84
2023-03-17T06:18:17.266Z,96049.97
2023-03-17T06:20:43.566Z,96049.16
2023-03-17T06:23:09.939Z,96050.56
2023-03-17T06:25:36.262Z,96048.19
2023-03-17T06:28:02.887Z,96060.56
2023-03-17T06:30:29.249Z,96062.00
2023-03-17T06:32:55.583Z,96063.41
2023-03-17T06:35:21.953Z,96058.19
2023-03-17T06:37:48.283Z,96064.13
2023-03-17T06:40:14.618Z,96059.81
2023-03-17T06:42:40.931Z,96061.63
2023-03-17T06:45:07.255Z,96067.03
2023-03-17T06:47:33.572Z,96065.69
2023-03-17T06:49:59.871Z,96067.75
2023-03-17T06:52:26.204Z,96068.41
2023-03-17T06:54:52.503Z,96055.22
2023-03-17T06:57:18.810Z,96057.28
2023-03-17T06:59:45.152Z,96059.63
2023-03-17T07:02:11.535Z,96052.47
2023-03-17T07:04:38.034Z,96051.38
2023-03-17T07:07:04.418Z,96049.38
2023-03-17T07:09:30.834Z,96063.78
2023-03-17T07:11:57.171Z,96064.00
2023-03-17T07:14:23.524Z,96071.50
2023-03-17T07:16:49.851Z,96071.31
2023-03-17T07:19:16.218Z,96070.81
2023-03-17T07:21:42.575Z,96072.56
2023-03-17T07:24:08.870Z,96072.41
2023-03-17T07:26:35.170Z,96079.75
2023-03-17T07:29:01.552Z,96075.31
2023-03-17T07:31:27.895Z,96082.53
2023-03-17T07:33:56.898Z,96072.75
2023-03-17T07:36:23.657Z,96078.66
2023-03-17T07:38:49.969Z,96076.53
2023-03-17T07:41:16.261Z,96082.88
2023-03-17T07:43:42.620Z,96072.00
2023-03-17T07:46:08.971Z,96069.41
2023-03-17T07:48:35.331Z,96067.69
2023-03-17T07:51:01.662Z,96069.53
2023-03-17T07:53:27.942Z,96068.22
2023-03-17T07:55:54.266Z,96058.84
2023-03-17T07:58:20.605Z,96062.00
2023-03-17T08:00:46.899Z,96053.34
2023-03-17T08:03:13.283Z,96050.38
2023-03-17T08:05:39.657Z,96056.81
2023-03-17T08:08:06.006Z,96044.53
2023-03-17T08:10:32.562Z,96054.31
2023-03-17T08:12:59.125Z,96052.56
2023-03-17T08:15:25.457Z,96050.44
2023-03-17T08:17:51.762Z,96057.47
2023-03-17T08:20:18.125Z,96050.81
2023-03-17T08:22:44.449Z,96063.91
2023-03-17T08:25:10.757Z,96064.84
2023-03-17T08:27:37.119Z,96062.44
2023-03-17T08:30:03.414Z,96065.47
2023-03-17T08:32:29.784Z,96064.56
2023-03-17T08:34:56.198Z,96074.72
2023-03-17T08:37:22.534Z,96068.25
2023-03-17T08:39:48.881Z,96069.72
2023-03-17T08:42:15.197Z,96070.00
2023-03-17T08:44:43.931Z,96070.50
2023-03-17T08:47:10.413Z,96061.81
2023-03-17T08:49:36.750Z,96062.44
2023-03-17T08:52:03.073Z,96056.97
2023-03-17T08:54:29.395Z,96056.00
2023-03-17T08:56:55.725Z,96051.13
2023-03-17T08:59:22.028Z,96049.16
2023-03-17T09:01:48.500Z,96052.06
2023-03-17T09:04:14.878Z,96039.56
2023-03-17T09:06:51.898Z,96046.66
2023-03-17T09:09:27.496Z,96047.75
2023-03-17T09:11:53.798Z,96040.44
2023-03-17T09:14:20.115Z,96045.22
2023-03-17T09:16:46.434Z,96046.63
2023-03-17T09:19:12.730Z,96035.19
2023-03-17T09:21:39.036Z,96029.25
2023-03-17T09:24:05.374Z,96030.56
2023-03-17T09:26:31.705Z,96029.66
2023-03-17T09:28:58.007Z,96036.41
2023-03-17T09:31:24.372Z,96040.28
2023-03-17T09:33:50.699Z,96034.97
2023-03-17T09:36:17.003Z,96030.31
2023-03-17T09:38:43.370Z,96028.56
2023-03-17T09:41:09.697Z,96026.38
2023-03-17T09:43:35.990Z,96026.56
2023-03-17T09:46:02.325Z,96023.38
2023-03-17T09:48:28.642Z,96020.91
2023-03-17T09:50:54.973Z,96026.16
2023-03-17T09:53:21.315Z,96028.16
2023-03-17T09:55:47.629Z,96023.31
2023-03-17T09:58:13.949Z,96028.47
2023-03-17T10:00:40.270Z,96017.75
2023-03-17T10:03:06.574Z,96017.06
2023-03-17T10:05:33.085Z,96021.34
2023-03-17T10:07:59.513Z,96026.88
2023-03-17T10:10:25.822Z,96015.69
2023-03-17T10:12:52.126Z,96017.19
2023-03-17T10:15:19.229Z,96020.38
2023-03-17T10:17:45.523Z,96005.78
2023-03-17T10:20:11.838Z,96005.09
2023-03-17T10:22:38.160Z,95995.47
2023-03-17T10:25:04.461Z,95996.69
2023-03-17T10:27:30.779Z,95995.44
2023-03-17T10:29:57.103Z,95994.31
2023-03-17T10:32:23.408Z,95996.81
2023-03-17T10:34:49.719Z,95991.38
2023-03-17T10:37:16.059Z,95983.13
2023-03-17T10:39:42.372Z,95994.00
2023-03-17T10:42:08.677Z,95980.84
2023-03-17T10:44:35.055Z,95982.81
2023-03-17T10:47:01.396Z,95985.69
2023-03-17T10:49:27.695Z,95986.50
2023-03-17T10:51:54.031Z,95978.38
2023-03-17T10:54:20.346Z,95980.44
2023-03-17T10:56:46.644Z,95977.69
2023-03-17T10:59:13.006Z,95968.78
2023-03-17T11:01:39.342Z,95975.59
2023-03-17T11:04:05.694Z,95971.94
2023-03-17T11:06:32.060Z,95968.56
2023-03-17T11:08:58.368Z,95967.56
2023-03-17T11:11:24.664Z,95967.22
2023-03-17T11:13:50.989Z,95969.34
2023-03-17T11:16:17.336Z,95961.38
2023-03-17T11:18:43.674Z,95965.06
2023-03-17T11:21:09.992Z,95963.84
2023-03-17T11:23:36.304Z,95961.63
2023-03-17T11:26:02.687Z,95959.56
2023-03-17T11:28:29.070Z,95955.34
2023-03-17T11:30:55.372Z,95943.28
2023-03-17T11:33:21.755Z,95949.50
2023-03-17T11:35:48.129Z,95946.69
2023-03-17T11:38:14.580Z,95938.66
2023-03-17T11:40:40.893Z,95932.88
2023-03-17T11:43:07.238Z,95934.66
2023-03-17T11:45:33.534Z,95931.44
2023-03-17T11:48:00.967Z,95928.97
2023-03-17T11:50:27.415Z,95938.06
2023-03-17T11:52:53.729Z,95937.75
2023-03-17T11:55:20.035Z,95932.16
2023-03-17T11:57:46.353Z,95931.38
2023-03-17T12:00:12.663Z,95937.19
2023-03-17T12:02:38.964Z,95936.56
2023-03-17T12:05:05.318Z,95932.25
2023-03-17T12:07:31.620Z,95936.13
2023-03-17T12:09:57.923Z,95922.72
2023-03-17T12:12:24.240Z,95928.94
2023-03-17T12:14:50.547Z,95920.50
2023-03-17T12:17:16.853Z,95926.97
2023-03-17T12:19:43.180Z,95916.88
2023-03-17T12:22:09.491Z,95911.34
2023-03-17T12:24:35.792Z,95907.63
2023-03-17T12:27:02.143Z,95917.34
2023-03-17T12:29:28.445Z,95913.16
2023-03-17T12:31:54.741Z,95919.34
2023-03-17T12:34:21.074Z,95914.88
2023-03-17T12:36:47.384Z,95905.81
2023-03-17T12:39:13.689Z,95902.56
2023-03-17T12:41:40.034Z,95901.91
2023-03-17T12:44:06.346Z,95901.53
2023-03-17T12:46:32.704Z,95907.63
2023-03-17T12:48:59.034Z,95901.72
2023-03-17T12:51:25.336Z,95896.88
2023-03-17T12:53:51.639Z,95898.84
2023-03-17T12:56:18.007Z,95895.97
2023-03-17T12:58:44.321Z,95901.94
2023-03-17T13:01:10.652Z,95887.28
2023-03-17T13:03:37.104Z,95895.66
2023-03-17T13:06:03.482Z,95884.72
2023-03-17T13:08:29.781Z,95873.81
2023-03-17T13:10:56.107Z,95879.47
2023-03-17T13:13:22.411Z,95886.03
2023-03-17T13:15:48.735Z,95879.34
2023-03-17T13:18:15.068Z,95874.19
2023-03-17T13:20:41.358Z,95875.44
2023-03-17T13:23:07.799Z,95868.28
2023-03-17T13:25:34.116Z,95871.03
2023-03-17T13:28:00.413Z,95854.88
2023-03-17T13:30:26.727Z,95861.09
2023-03-17T13:32:54.322Z,95853.94
2023-03-17T13:35:20.685Z,95850.84
2023-03-17T13:37:46.992Z,95851.91
2023-03-17T13:40:13.320Z,95847.72
2023-03-17T13:42:39.627Z,95840.69
2023-03-17T13:45:05.941Z,95845.97
2023-03-17T13:47:32.259Z,95837.41
2023-03-17T13:49:58.592Z,95834.31
2023-03-17T13:52:24.897Z,95827.94
2023-03-17T13:54:51.254Z,95830.59
2023-03-17T13:57:17.560Z,95832.94
2023-03-17T13:59:43.873Z,95837.13
2023-03-17T14:02:10.245Z,95828.84
2023-03-17T14:04:36.557Z,95817.81
2023-03-17T14:07:02.865Z,95811.75
2023-03-17T14:09:29.182Z,95822.31
2023-03-17T14:11:55.475Z,95814.53
2023-03-17T14:14:32.068Z,95810.28
2023-03-17T14:16:59.088Z,95810.94
2023-03-17T14:19:25.401Z,95804.25
2023-03-17T14:21:51.701Z,95804.41
2023-03-17T14:24:18.027Z,95800.56
2023-03-17T14:26:44.331Z,95809.72
2023-03-17T14:29:10.631Z,95801.78
2023-03-17T14:31:37.052Z,95804.97
2023-03-17T14:34:03.452Z,95797.47
2023-03-17T14:36:29.752Z,95801.59
2023-03-17T14:38:56.084Z,95789.72
2023-03-17T14:41:22.400Z,95783.41
2023-03-17T14:43:48.711Z,95788.50
2023-03-17T14:46:15.122Z,95789.19
2023-03-17T14:48:41.451Z,95780.78
2023-03-17T14:51:07.764Z,95785.72
2023-03-17T14:53:34.100Z,95782.28
2023-03-17T14:56:00.413Z,95771.16
2023-03-17T14:58:26.728Z,95779.13
2023-03-17T15:00:53.072Z,95761.59
2023-03-17T15:03:19.390Z,95771.81
2023-03-17T15:05:45.860Z,95782.41
2023-03-17T15:08:12.228Z,95780.28
2023-03-17T15:10:38.549Z,95771.97
2023-03-17T15:13:04.856Z,95769.56
2023-03-17T15:15:31.181Z,95770.66
2023-03-17T15:17:57.478Z,95770.78
2023-03-17T15:20:23.781Z,95770.66
2023-03-17T15:22:50.094Z,95771.09
2023-03-17T15:25:16.404Z,95767.66
2023-03-17T15:27:42.704Z,95769.25
2023-03-17T15:30:09.049Z,95772.97
2023-03-17T15:32:35.394Z,95760.69
2023-03-17T15:35:01.727Z,95766.47
2023-03-17T15:37:28.056Z,95765.50
2023-03-17T15:39:54.366Z,95771.44
2023-03-17T15:42:20.654Z,95758.38
2023-03-17T15:44:46.966Z,95761.59
2023-03-17T15:47:13.286Z,95752.41
2023-03-17T15:49:39.593Z,95759.47
2023-03-17T15:52:05.899Z,95756.84
2023-03-17T15:54:32.205Z,95747.91
2023-03-17T15:56:58.507Z,95741.13
2023-03-17T15:59:24.831Z,95749.34
2023-03-17T16:01:51.198Z,95741.72
2023-03-17T16:04:17.536Z,95747.19
2023-03-17T16:06:43.890Z,95748.41
2023-03-17T16:09:10.200Z,95753.25
2023-03-17T16:11:36.798Z,95744.81
2023-03-17T16:14:03.899Z,95744.97
2023-03-17T16:16:30.243Z,95744.38
2023-03-17T16:18:56.564Z,95749.50
2023-03-17T16:21:22.898Z,95745.31
2023-03-17T16:23:49.232Z,95743.44
2023-03-17T16:26:16.944Z,95736.44
2023-03-17T16:28:43.480Z,95743.47
2023-03-17T16:31:09.841Z,95737.22
2023-03-17T16:33:36.165Z,95744.69
2023-03-17T16:36:02.560Z,95740.66
2023-03-17T16:38:28.911Z,95748.28
2023-03-17T16:40:55.239Z,95739.72
2023-03-17T16:43:25.719Z,95748.13
2023-03-17T16:45:52.261Z,95747.50
2023-03-17T16:48:18.571Z,95748.59
2023-03-17T16:50:44.891Z,95766.44
2023-03-17T16:53:11.203Z,95768.34
2023-03-17T16:55:37.496Z,95771.44
2023-03-17T16:58:03.815Z,95760.88
2023-03-17T17:00:30.443Z,95767.88
2023-03-17T17:02:56.979Z,95765.22
2023-03-17T17:05:23.315Z,95773.16
2023-03-17T17:07:49.657Z,95772.06
2023-03-17T17:10:15.956Z,95775.41
2023-03-17T17:12:42.289Z,95767.56
2023-03-17T17:15:08.605Z,95758.25
2023-03-17T17:17:34.917Z,95769.75
2023-03-17T17:20:01.325Z,95778.28
2023-03-17T17:22:27.673Z,95775.94
2023-03-17T17:24:53.970Z,95783.88
2023-03-17T17:27:20.285Z,95791.97
2023-03-17T17:29:46.595Z,95794.59
2023-03-17T17:32:12.908Z,95796.63
2023-03-17T17:34:39.229Z,95795.09
2023-03-17T17:37:05.560Z,95793.00
2023-03-17T17:39:31.864Z,95787.28
2023-03-17T17:41:58.172Z,95791.63
2023-03-17T17:44:24.468Z,95794.75
2023-03-17T17:46:50.879Z,95804.59
2023-03-17T17:49:17.297Z,95799.47
2023-03-17T17:51:43.644Z,95799.19
2023-03-17T17:54:09.941Z,95799.59
2023-03-17T17:56:36.259Z,95803.41
2023-03-17T17:59:02.558Z,95803.09
2023-03-17T18:01:28.920Z,95813.19
2023-03-17T18:03:55.257Z,95803.41
2023-03-17T18:06:21.550Z,95805.38
2023-03-17T18:08:47.861Z,95807.28
2023-03-17T18:11:14.191Z,95807.81
2023-03-17T18:13:40.520Z,95799.88
2023-03-17T18:16:06.826Z,95809.94
2023-03-17T18:18:33.178Z,95807.44
2023-03-17T18:20:59.486Z,95810.81
2023-03-17T18:23:25.788Z,95811.91
2023-03-17T18:25:52.145Z,95825.09
2023-03-17T18:28:18.508Z,95825.59
2023-03-17T18:30:44.814Z,95831.34
2023-03-17T18:33:11.183Z,95837.84
2023-03-17T18:35:37.568Z,95842.38
2023-03-17T18:38:03.877Z,95835.53
2023-03-17T18:40:30.211Z,95838.13
2023-03-17T18:42:56.521Z,95844.53
2023-03-17T18:45:22.928Z,95838.38
2023-03-17T18:47:49.253Z,95842.41
2023-03-17T18:50:15.604Z,95846.09
2023-03-17T18:52:41.932Z,95857.59
2023-03-17T18:55:08.248Z,95851.22
2023-03-17T18:57:34.567Z,95856.03
2023-03-17T19:00:00.899Z,95852.41
2023-03-17T19:02:27.218Z,95853.59
2023-03-17T19:04:53.521Z,95855.72
2023-03-17T19:07:19.829Z,95853.22
2023-03-17T19:09:46.152Z,95851.44
2023-03-17T19:12:12.495Z,95858.56
2023-03-17T19:14:38.810Z,95866.16
2023-03-17T19:17:05.130Z,95866.41
2023-03-17T19:19:31.448Z,95862.50
2023-03-17T19:21:57.767Z,95850.53
2023-03-17T19:24:24.090Z,95858.00
2023-03-17T19:26:50.389Z,95846.88
2023-03-17T19:29:16.686Z,95859.78
2023-03-17T19:31:43.067Z,95863.91
2023-03-17T19:34:09.371Z,95858.66
2023-03-17T19:36:35.660Z,95872.41
2023-03-17T19:39:01.987Z,95881.06
2023-03-17T19:41:28.312Z,95873.31
2023-03-17T19:43:54.623Z,95877.16
2023-03-17T19:46:20.987Z,95878.06
2023-03-17T19:48:47.370Z,95875.66
2023-03-17T19:51:13.672Z,95889.09
2023-03-17T19:53:39.994Z,95884.09
2023-03-17T19:56:06.308Z,95882.41
2023-03-17T19:58:32.612Z,95899.25
2023-03-17T20:00:58.923Z,95882.38
2023-03-17T20:03:26.347Z,95881.78
2023-03-17T20:05:52.743Z,95887.41
2023-03-17T20:08:19.060Z,95898.28
2023-03-17T20:10:45.360Z,95900.03
2023-03-17T20:13:11.676Z,95895.75
2023-03-17T20:15:38.084Z,95899.63
2023-03-17T20:18:04.404Z,95901.63
2023-03-17T20:20:31.094Z,95901.75
2023-03-17T20:22:57.655Z,95902.34
2023-03-17T20:25:23.968Z,95901.03
2023-03-17T20:27:50.267Z,95912.97
2023-03-17T20:30:16.587Z,95911.00
2023-03-17T20:32:42.918Z,95899.91
2023-03-17T20:35:09.532Z,95902.59
2023-03-17T20:37:36.027Z,95913.41
2023-03-17T20:40:02.339Z,95923.53
2023-03-17T20:42:28.644Z,95925.28
2023-03-17T20:44:54.968Z,95926.06
2023-03-17T20:47:21.259Z,95922.94
2023-03-17T20:49:47.561Z,95919.81
2023-03-17T20:52:13.893Z,95924.16
2023-03-17T20:54:40.193Z,95918.81
2023-03-17T20:57:06.495Z,95919.78
2023-03-17T20:59:32.822Z,95921.06
2023-03-17T21:01:59.150Z,95936.91
2023-03-17T21:04:25.482Z,95933.22
2023-03-17T21:06:51.803Z,95935.78
2023-03-17T21:09:18.135Z,95941.00
2023-03-17T21:11:44.431Z,95933.84
2023-03-17T21:14:10.754Z,95947.72
2023-03-17T21:16:37.176Z,95943.28
2023-03-17T21:19:03.511Z,95949.41
2023-03-17T21:21:29.830Z,95940.34
2023-03-17T21:23:56.145Z,95943.25
2023-03-17T21:26:22.430Z,95947.19
2023-03-17T21:28:48.767Z,95950.63
2023-03-17T21:31:15.176Z,95948.50
2023-03-17T21:33:41.512Z,95947.03
2023-03-17T21:36:07.902Z,95946.38
2023-03-17T21:38:34.241Z,95947.28
2023-03-17T21:41:00.535Z,95951.28
2023-03-17T21:43:26.896Z,95959.56
2023-03-17T21:45:53.199Z,95963.78
2023-03-17T21:48:19.552Z,95960.63
2023-03-17T21:50:45.862Z,95965.56
2023-03-17T21:53:12.156Z,95969.56
2023-03-17T21:55:38.460Z,95967.03
2023-03-17T21:58:04.762Z,95971.19
2023-03-17T22:00:39.393Z,95977.38
2023-03-17T22:03:10.998Z,95965.13
2023-03-17T22:05:37.300Z,95973.38
2023-03-17T22:08:03.598Z,95982.41
2023-03-17T22:10:30.013Z,95987.84
2023-03-17T22:12:56.390Z,95982.78
2023-03-17T22:15:23.061Z,95988.94
2023-03-17T22:17:49.491Z,95994.75
2023-03-17T22:20:15.786Z,95989.13
2023-03-17T22:22:42.253Z,95999.34
2023-03-17T22:25:08.610Z,95996.56
2023-03-17T22:27:34.913Z,95990.78
2023-03-17T22:30:01.483Z,95988.19
2023-03-17T22:32:27.827Z,95976.16
2023-03-17T22:34:54.138Z,95984.69
2023-03-17T22:37:20.450Z,95989.63
2023-03-17T22:39:46.774Z,95996.13
2023-03-17T22:42:13.061Z,95994.91
2023-03-17T22:44:39.366Z,96003.25
2023-03-17T22:47:05.732Z,96001.47
2023-03-17T22:49:32.036Z,96000.22
2023-03-17T22:51:58.337Z,95991.94
2023-03-17T22:54:24.689Z,95997.53
2023-03-17T22:56:51.019Z,95996.00
2023-03-17T22:59:17.334Z,96006.53
2023-03-17T23:01:43.668Z,96005.06
2023-03-17T23:04:10.268Z,96000.53
2023-03-17T23:06:36.730Z,96002.09
2023-03-17T23:09:03.063Z,96014.44
2023-03-17T23:11:29.378Z,96014.41
2023-03-17T23:13:55.682Z,96008.22
2023-03-17T23:16:26.537Z,96016.50
2023-03-17T23:18:52.841Z,96022.44
2023-03-17T23:21:19.142Z,96032.16
2023-03-17T23:23:45.460Z,96026.00
2023-03-17T23:26:11.766Z,96034.03
2023-03-17T23:28:38.068Z,96030.47
2023-03-17T23:31:04.487Z,96028.53
2023-03-17T23:33:30.835Z,96024.81
2023-03-17T23:35:57.230Z,96028.38
2023-03-17T23:38:23.558Z,96035.88
2023-03-17T23:40:49.852Z,96031.22
2023-03-17T23:43:16.146Z,96033.66
2023-03-17T23:45:42.746Z,96030.16
2023-03-17T23:48:11.349Z,96032.28
2023-03-17T23:50:37.648Z,96027.81
2023-03-17T23:53:04.002Z,96029.31
2023-03-17T23:55:30.322Z,96034.59
2023-03-17T23:57:56.626Z,96030.88
